sensor_id;sensor_type;location;lat;lon;timestamp;P1;durP1;ratioP1;P2;durP2;ratioP2
60859;SDS011;46694;54.382;9.708;2023-02-23T00:01:21;39.38;;;20.48;;
60859;SDS011;46694;54.382;9.708;2023-02-23T00:04:06;43.00;;;18.33;;
60859;SDS011;46694;54.382;9.708;2023-02-23T00:06:45;39.22;;;19.45;;
60859;SDS011;46694;54.382;9.708;2023-02-23T00:09:25;41.17;;;18.98;;
60859;SDS011;46694;54.382;9.708;2023-02-23T00:12:12;39.85;;;18.85;;
60859;SDS011;46694;54.382;9.708;2023-02-23T00:14:54;45.08;;;19.25;;
60859;SDS011;46694;54.382;9.708;2023-02-23T00:17:34;48.83;;;20.10;;
60859;SDS011;46694;54.382;9.708;2023-02-23T00:20:14;52.67;;;22.40;;
60859;SDS011;46694;54.382;9.708;2023-02-23T00:22:54;41.47;;;21.52;;
60859;SDS011;46694;54.382;9.708;2023-02-23T00:25:36;55.25;;;22.80;;
60859;SDS011;46694;54.382;9.708;2023-02-23T00:28:16;50.22;;;21.70;;
60859;SDS011;46694;54.382;9.708;2023-02-23T00:30:56;41.22;;;19.60;;
60859;SDS011;46694;54.382;9.708;2023-02-23T00:33:35;44.30;;;20.40;;
60859;SDS011;46694;54.382;9.708;2023-02-23T00:36:15;48.10;;;20.92;;
60859;SDS011;46694;54.382;9.708;2023-02-23T00:38:56;52.25;;;20.42;;
60859;SDS011;46694;54.382;9.708;2023-02-23T00:41:38;59.38;;;22.90;;
60859;SDS011;46694;54.382;9.708;2023-02-23T00:44:18;48.78;;;22.38;;
60859;SDS011;46694;54.382;9.708;2023-02-23T00:47:02;43.40;;;21.30;;
60859;SDS011;46694;54.382;9.708;2023-02-23T00:49:41;46.45;;;20.83;;
60859;SDS011;46694;54.382;9.708;2023-02-23T00:52:22;39.10;;;19.85;;
60859;SDS011;46694;54.382;9.708;2023-02-23T00:55:02;39.38;;;20.48;;
60859;SDS011;46694;54.382;9.708;2023-02-23T00:57:41;41.05;;;20.50;;
60859;SDS011;46694;54.382;9.708;2023-02-23T01:00:21;47.40;;;21.17;;
60859;SDS011;46694;54.382;9.708;2023-02-23T01:03:03;34.60;;;21.27;;
60859;SDS011;46694;54.382;9.708;2023-02-23T01:05:42;53.10;;;23.00;;
60859;SDS011;46694;54.382;9.708;2023-02-23T01:08:22;47.95;;;23.45;;
60859;SDS011;46694;54.382;9.708;2023-02-23T01:11:06;51.08;;;20.73;;
60859;SDS011;46694;54.382;9.708;2023-02-23T01:13:51;58.30;;;21.05;;
60859;SDS011;46694;54.382;9.708;2023-02-23T01:16:34;51.05;;;22.02;;
60859;SDS011;46694;54.382;9.708;2023-02-23T01:19:16;53.65;;;23.00;;
60859;SDS011;46694;54.382;9.708;2023-02-23T01:21:55;50.38;;;21.15;;
60859;SDS011;46694;54.382;9.708;2023-02-23T01:24:35;52.67;;;23.70;;
60859;SDS011;46694;54.382;9.708;2023-02-23T01:27:16;53.92;;;21.10;;
60859;SDS011;46694;54.382;9.708;2023-02-23T01:29:56;44.63;;;21.77;;
60859;SDS011;46694;54.382;9.708;2023-02-23T01:32:35;47.22;;;21.15;;
60859;SDS011;46694;54.382;9.708;2023-02-23T01:35:15;58.63;;;23.70;;
60859;SDS011;46694;54.382;9.708;2023-02-23T01:37:55;45.45;;;23.38;;
60859;SDS011;46694;54.382;9.708;2023-02-23T01:40:35;50.15;;;22.67;;
60859;SDS011;46694;54.382;9.708;2023-02-23T01:43:18;49.97;;;24.80;;
60859;SDS011;46694;54.382;9.708;2023-02-23T01:46:03;58.47;;;22.40;;
60859;SDS011;46694;54.382;9.708;2023-02-23T01:48:43;56.13;;;23.83;;
60859;SDS011;46694;54.382;9.708;2023-02-23T01:51:23;66.05;;;26.20;;
60859;SDS011;46694;54.382;9.708;2023-02-23T01:54:08;56.58;;;22.75;;
60859;SDS011;46694;54.382;9.708;2023-02-23T01:56:54;61.47;;;24.92;;
60859;SDS011;46694;54.382;9.708;2023-02-23T01:59:43;59.30;;;24.20;;
60859;SDS011;46694;54.382;9.708;2023-02-23T02:02:26;57.08;;;24.20;;
60859;SDS011;46694;54.382;9.708;2023-02-23T02:05:10;54.08;;;24.25;;
60859;SDS011;46694;54.382;9.708;2023-02-23T02:07:51;59.20;;;25.10;;
60859;SDS011;46694;54.382;9.708;2023-02-23T02:10:36;56.85;;;25.70;;
60859;SDS011;46694;54.382;9.708;2023-02-23T02:13:26;69.93;;;26.13;;
60859;SDS011;46694;54.382;9.708;2023-02-23T02:31:49;50.72;;;25.20;;
60859;SDS011;46694;54.382;9.708;2023-02-23T02:38:08;62.03;;;27.70;;
60859;SDS011;46694;54.382;9.708;2023-02-23T02:45:00;67.45;;;28.10;;
60859;SDS011;46694;54.382;9.708;2023-02-23T02:47:55;58.35;;;27.27;;
60859;SDS011;46694;54.382;9.708;2023-02-23T02:51:06;65.70;;;27.90;;
60859;SDS011;46694;54.382;9.708;2023-02-23T02:54:23;70.78;;;29.70;;
60859;SDS011;46694;54.382;9.708;2023-02-23T02:57:11;63.85;;;27.35;;
60859;SDS011;46694;54.382;9.708;2023-02-23T02:59:52;58.97;;;28.15;;
60859;SDS011;46694;54.382;9.708;2023-02-23T03:02:50;71.53;;;30.35;;
60859;SDS011;46694;54.382;9.708;2023-02-23T03:05:49;73.50;;;30.63;;
60859;SDS011;46694;54.382;9.708;2023-02-23T03:08:53;70.05;;;29.83;;
60859;SDS011;46694;54.382;9.708;2023-02-23T03:12:08;73.05;;;28.17;;
60859;SDS011;46694;54.382;9.708;2023-02-23T03:15:23;76.15;;;27.95;;
60859;SDS011;46694;54.382;9.708;2023-02-23T03:18:39;71.55;;;28.85;;
60859;SDS011;46694;54.382;9.708;2023-02-23T03:22:03;76.50;;;28.90;;
60859;SDS011;46694;54.382;9.708;2023-02-23T03:25:22;60.03;;;28.15;;
60859;SDS011;46694;54.382;9.708;2023-02-23T03:28:29;61.55;;;27.45;;
60859;SDS011;46694;54.382;9.708;2023-02-23T03:35:22;61.05;;;28.20;;
60859;SDS011;46694;54.382;9.708;2023-02-23T03:38:34;69.50;;;28.58;;
60859;SDS011;46694;54.382;9.708;2023-02-23T03:42:13;67.90;;;30.33;;
60859;SDS011;46694;54.382;9.708;2023-02-23T03:45:17;68.45;;;30.08;;
60859;SDS011;46694;54.382;9.708;2023-02-23T03:48:20;86.10;;;29.63;;
60859;SDS011;46694;54.382;9.708;2023-02-23T03:51:19;63.13;;;30.38;;
60859;SDS011;46694;54.382;9.708;2023-02-23T03:54:26;73.05;;;30.38;;
60859;SDS011;46694;54.382;9.708;2023-02-23T03:57:32;91.43;;;32.35;;
60859;SDS011;46694;54.382;9.708;2023-02-23T04:00:33;65.07;;;29.67;;
60859;SDS011;46694;54.382;9.708;2023-02-23T04:03:38;63.30;;;30.25;;
60859;SDS011;46694;54.382;9.708;2023-02-23T04:06:39;71.13;;;30.45;;
60859;SDS011;46694;54.382;9.708;2023-02-23T04:09:42;73.63;;;30.95;;
60859;SDS011;46694;54.382;9.708;2023-02-23T04:12:50;72.03;;;31.48;;
60859;SDS011;46694;54.382;9.708;2023-02-23T04:16:04;79.68;;;30.40;;
60859;SDS011;46694;54.382;9.708;2023-02-23T04:18:47;77.05;;;33.83;;
60859;SDS011;46694;54.382;9.708;2023-02-23T04:21:27;72.45;;;30.90;;
60859;SDS011;46694;54.382;9.708;2023-02-23T04:24:07;88.30;;;34.15;;
60859;SDS011;46694;54.382;9.708;2023-02-23T04:26:48;90.13;;;35.05;;
60859;SDS011;46694;54.382;9.708;2023-02-23T04:29:27;83.07;;;32.47;;
60859;SDS011;46694;54.382;9.708;2023-02-23T04:32:08;84.43;;;33.10;;
60859;SDS011;46694;54.382;9.708;2023-02-23T04:34:52;89.03;;;36.00;;
60859;SDS011;46694;54.382;9.708;2023-02-23T04:37:32;114.93;;;39.05;;
60859;SDS011;46694;54.382;9.708;2023-02-23T04:40:12;118.20;;;41.72;;
60859;SDS011;46694;54.382;9.708;2023-02-23T04:42:52;119.28;;;43.03;;
60859;SDS011;46694;54.382;9.708;2023-02-23T04:45:32;143.02;;;44.42;;
60859;SDS011;46694;54.382;9.708;2023-02-23T04:48:11;151.70;;;46.47;;
60859;SDS011;46694;54.382;9.708;2023-02-23T04:50:51;167.15;;;48.15;;
60859;SDS011;46694;54.382;9.708;2023-02-23T04:53:32;163.45;;;49.97;;
60859;SDS011;46694;54.382;9.708;2023-02-23T04:56:12;154.25;;;47.58;;
60859;SDS011;46694;54.382;9.708;2023-02-23T04:58:51;156.43;;;49.05;;
60859;SDS011;46694;54.382;9.708;2023-02-23T05:01:31;155.63;;;49.58;;
60859;SDS011;46694;54.382;9.708;2023-02-23T05:04:10;177.88;;;49.92;;
60859;SDS011;46694;54.382;9.708;2023-02-23T05:06:50;165.65;;;49.28;;
60859;SDS011;46694;54.382;9.708;2023-02-23T05:09:30;150.15;;;50.78;;
60859;SDS011;46694;54.382;9.708;2023-02-23T05:12:10;162.40;;;50.03;;
60859;SDS011;46694;54.382;9.708;2023-02-23T05:14:49;150.02;;;49.47;;
60859;SDS011;46694;54.382;9.708;2023-02-23T05:17:29;149.98;;;49.03;;
60859;SDS011;46694;54.382;9.708;2023-02-23T05:20:09;165.75;;;51.72;;
60859;SDS011;46694;54.382;9.708;2023-02-23T05:22:50;175.13;;;54.50;;
60859;SDS011;46694;54.382;9.708;2023-02-23T05:25:30;180.35;;;53.47;;
60859;SDS011;46694;54.382;9.708;2023-02-23T05:28:10;200.70;;;56.20;;
60859;SDS011;46694;54.382;9.708;2023-02-23T05:30:49;197.20;;;55.47;;
60859;SDS011;46694;54.382;9.708;2023-02-23T05:33:29;184.15;;;55.65;;
60859;SDS011;46694;54.382;9.708;2023-02-23T05:36:10;190.82;;;53.95;;
60859;SDS011;46694;54.382;9.708;2023-02-23T05:38:53;180.63;;;56.67;;
60859;SDS011;46694;54.382;9.708;2023-02-23T05:41:33;193.07;;;56.40;;
60859;SDS011;46694;54.382;9.708;2023-02-23T05:44:13;199.00;;;57.67;;
60859;SDS011;46694;54.382;9.708;2023-02-23T05:46:52;184.95;;;55.83;;
60859;SDS011;46694;54.382;9.708;2023-02-23T05:49:32;216.88;;;59.85;;
60859;SDS011;46694;54.382;9.708;2023-02-23T05:52:12;175.10;;;57.67;;
60859;SDS011;46694;54.382;9.708;2023-02-23T05:54:51;182.57;;;54.70;;
60859;SDS011;46694;54.382;9.708;2023-02-23T05:57:31;185.75;;;55.90;;
60859;SDS011;46694;54.382;9.708;2023-02-23T06:00:11;210.05;;;57.88;;
60859;SDS011;46694;54.382;9.708;2023-02-23T06:02:54;220.82;;;58.63;;
60859;SDS011;46694;54.382;9.708;2023-02-23T06:05:33;224.30;;;60.85;;
60859;SDS011;46694;54.382;9.708;2023-02-23T06:08:13;230.55;;;62.42;;
60859;SDS011;46694;54.382;9.708;2023-02-23T06:10:53;231.43;;;62.85;;
60859;SDS011;46694;54.382;9.708;2023-02-23T06:13:33;239.90;;;64.10;;
60859;SDS011;46694;54.382;9.708;2023-02-23T06:16:12;271.77;;;78.32;;
60859;SDS011;46694;54.382;9.708;2023-02-23T06:18:52;222.50;;;63.53;;
60859;SDS011;46694;54.382;9.708;2023-02-23T06:21:31;241.70;;;60.53;;
60859;SDS011;46694;54.382;9.708;2023-02-23T06:24:11;223.00;;;59.83;;
60859;SDS011;46694;54.382;9.708;2023-02-23T06:26:52;257.90;;;60.70;;
60859;SDS011;46694;54.382;9.708;2023-02-23T06:29:31;219.27;;;58.78;;
60859;SDS011;46694;54.382;9.708;2023-02-23T06:32:11;272.85;;;63.17;;
60859;SDS011;46694;54.382;9.708;2023-02-23T06:34:51;255.07;;;63.28;;
60859;SDS011;46694;54.382;9.708;2023-02-23T06:37:31;272.77;;;65.85;;
60859;SDS011;46694;54.382;9.708;2023-02-23T06:40:13;249.57;;;61.40;;
60859;SDS011;46694;54.382;9.708;2023-02-23T06:42:54;282.25;;;65.97;;
60859;SDS011;46694;54.382;9.708;2023-02-23T06:45:33;285.27;;;67.00;;
60859;SDS011;46694;54.382;9.708;2023-02-23T06:48:13;252.05;;;65.32;;
60859;SDS011;46694;54.382;9.708;2023-02-23T06:50:52;286.92;;;66.45;;
60859;SDS011;46694;54.382;9.708;2023-02-23T06:53:32;317.00;;;67.13;;
60859;SDS011;46694;54.382;9.708;2023-02-23T06:56:12;297.10;;;66.60;;
60859;SDS011;46694;54.382;9.708;2023-02-23T06:58:51;283.83;;;67.43;;
60859;SDS011;46694;54.382;9.708;2023-02-23T07:01:31;319.38;;;72.53;;
60859;SDS011;46694;54.382;9.708;2023-02-23T07:04:10;280.08;;;70.32;;
60859;SDS011;46694;54.382;9.708;2023-02-23T07:06:51;270.13;;;69.00;;
60859;SDS011;46694;54.382;9.708;2023-02-23T07:09:31;291.52;;;73.07;;
60859;SDS011;46694;54.382;9.708;2023-02-23T07:12:11;318.08;;;71.80;;
60859;SDS011;46694;54.382;9.708;2023-02-23T07:14:50;303.58;;;67.65;;
60859;SDS011;46694;54.382;9.708;2023-02-23T07:17:30;326.48;;;77.20;;
60859;SDS011;46694;54.382;9.708;2023-02-23T07:20:10;298.00;;;73.70;;
60859;SDS011;46694;54.382;9.708;2023-02-23T07:22:50;302.63;;;74.93;;
60859;SDS011;46694;54.382;9.708;2023-02-23T07:25:29;322.65;;;78.25;;
60859;SDS011;46694;54.382;9.708;2023-02-23T07:28:10;306.63;;;75.68;;
60859;SDS011;46694;54.382;9.708;2023-02-23T07:30:54;375.17;;;92.25;;
60859;SDS011;46694;54.382;9.708;2023-02-23T07:33:35;337.15;;;84.65;;
60859;SDS011;46694;54.382;9.708;2023-02-23T07:36:14;342.45;;;85.10;;
60859;SDS011;46694;54.382;9.708;2023-02-23T07:38:54;313.23;;;80.50;;
60859;SDS011;46694;54.382;9.708;2023-02-23T07:41:33;311.48;;;80.30;;
60859;SDS011;46694;54.382;9.708;2023-02-23T07:44:13;285.27;;;77.28;;
60859;SDS011;46694;54.382;9.708;2023-02-23T07:46:52;282.00;;;74.28;;
60859;SDS011;46694;54.382;9.708;2023-02-23T07:49:32;266.63;;;75.55;;
60859;SDS011;46694;54.382;9.708;2023-02-23T07:52:15;294.25;;;79.30;;
60859;SDS011;46694;54.382;9.708;2023-02-23T07:54:56;259.92;;;77.82;;
60859;SDS011;46694;54.382;9.708;2023-02-23T07:57:36;263.73;;;76.55;;
60859;SDS011;46694;54.382;9.708;2023-02-23T08:00:16;248.65;;;74.22;;
60859;SDS011;46694;54.382;9.708;2023-02-23T08:02:56;279.35;;;76.82;;
60859;SDS011;46694;54.382;9.708;2023-02-23T08:05:36;251.13;;;76.68;;
60859;SDS011;46694;54.382;9.708;2023-02-23T08:08:17;231.27;;;70.80;;
60859;SDS011;46694;54.382;9.708;2023-02-23T08:11:00;260.17;;;77.43;;
60859;SDS011;46694;54.382;9.708;2023-02-23T08:13:41;271.00;;;78.93;;
60859;SDS011;46694;54.382;9.708;2023-02-23T08:16:21;255.90;;;75.32;;
60859;SDS011;46694;54.382;9.708;2023-02-23T08:19:01;260.73;;;74.18;;
60859;SDS011;46694;54.382;9.708;2023-02-23T08:21:40;215.35;;;65.55;;
60859;SDS011;46694;54.382;9.708;2023-02-23T08:24:21;217.50;;;69.03;;
60859;SDS011;46694;54.382;9.708;2023-02-23T08:27:02;221.52;;;71.00;;
60859;SDS011;46694;54.382;9.708;2023-02-23T08:29:42;198.93;;;67.10;;
60859;SDS011;46694;54.382;9.708;2023-02-23T08:32:22;204.43;;;63.00;;
60859;SDS011;46694;54.382;9.708;2023-02-23T08:35:03;212.85;;;69.45;;
60859;SDS011;46694;54.382;9.708;2023-02-23T08:37:45;231.52;;;70.13;;
60859;SDS011;46694;54.382;9.708;2023-02-23T08:40:25;219.82;;;66.70;;
60859;SDS011;46694;54.382;9.708;2023-02-23T08:43:04;215.25;;;67.50;;
60859;SDS011;46694;54.382;9.708;2023-02-23T08:45:44;211.20;;;62.20;;
60859;SDS011;46694;54.382;9.708;2023-02-23T08:48:23;214.52;;;66.18;;
60859;SDS011;46694;54.382;9.708;2023-02-23T08:51:04;201.55;;;63.85;;
60859;SDS011;46694;54.382;9.708;2023-02-23T08:53:45;233.02;;;65.35;;
60859;SDS011;46694;54.382;9.708;2023-02-23T08:56:26;210.73;;;59.80;;
60859;SDS011;46694;54.382;9.708;2023-02-23T08:59:06;226.38;;;65.75;;
60859;SDS011;46694;54.382;9.708;2023-02-23T09:01:46;231.18;;;65.00;;
60859;SDS011;46694;54.382;9.708;2023-02-23T09:04:26;200.18;;;63.28;;
60859;SDS011;46694;54.382;9.708;2023-02-23T09:07:05;197.55;;;61.45;;
60859;SDS011;46694;54.382;9.708;2023-02-23T09:09:45;199.13;;;58.97;;
60859;SDS011;46694;54.382;9.708;2023-02-23T09:12:25;203.57;;;63.00;;
60859;SDS011;46694;54.382;9.708;2023-02-23T09:15:05;183.82;;;62.03;;
60859;SDS011;46694;54.382;9.708;2023-02-23T09:17:45;181.52;;;56.97;;
60859;SDS011;46694;54.382;9.708;2023-02-23T09:20:25;186.13;;;57.83;;
60859;SDS011;46694;54.382;9.708;2023-02-23T09:23:05;163.77;;;52.13;;
60859;SDS011;46694;54.382;9.708;2023-02-23T09:25:45;191.80;;;59.72;;
60859;SDS011;46694;54.382;9.708;2023-02-23T09:28:24;173.68;;;54.22;;
60859;SDS011;46694;54.382;9.708;2023-02-23T09:31:12;184.30;;;55.47;;
60859;SDS011;46694;54.382;9.708;2023-02-23T09:33:55;166.45;;;53.13;;
60859;SDS011;46694;54.382;9.708;2023-02-23T09:36:35;186.63;;;54.92;;
60859;SDS011;46694;54.382;9.708;2023-02-23T09:39:15;168.50;;;55.38;;
60859;SDS011;46694;54.382;9.708;2023-02-23T09:45:17;163.35;;;54.08;;
60859;SDS011;46694;54.382;9.708;2023-02-23T09:48:24;156.23;;;50.08;;
60859;SDS011;46694;54.382;9.708;2023-02-23T09:51:06;136.98;;;48.92;;
60859;SDS011;46694;54.382;9.708;2023-02-23T09:53:53;159.77;;;52.03;;
60859;SDS011;46694;54.382;9.708;2023-02-23T09:56:37;160.80;;;50.67;;
60859;SDS011;46694;54.382;9.708;2023-02-23T09:59:21;147.35;;;50.72;;
60859;SDS011;46694;54.382;9.708;2023-02-23T10:02:06;146.60;;;52.53;;
60859;SDS011;46694;54.382;9.708;2023-02-23T10:05:51;150.70;;;49.20;;
60859;SDS011;46694;54.382;9.708;2023-02-23T10:08:44;140.63;;;48.60;;
60859;SDS011;46694;54.382;9.708;2023-02-23T10:21:37;132.45;;;46.95;;
60859;SDS011;46694;54.382;9.708;2023-02-23T10:24:21;152.23;;;49.87;;
60859;SDS011;46694;54.382;9.708;2023-02-23T10:27:15;146.93;;;49.13;;
60859;SDS011;46694;54.382;9.708;2023-02-23T10:30:00;151.48;;;47.97;;
60859;SDS011;46694;54.382;9.708;2023-02-23T10:38:57;142.73;;;49.13;;
60859;SDS011;46694;54.382;9.708;2023-02-23T10:41:37;153.10;;;51.40;;
60859;SDS011;46694;54.382;9.708;2023-02-23T10:44:21;139.23;;;47.97;;
60859;SDS011;46694;54.382;9.708;2023-02-23T10:47:07;136.93;;;45.97;;
60859;SDS011;46694;54.382;9.708;2023-02-23T10:49:54;123.27;;;44.37;;
60859;SDS011;46694;54.382;9.708;2023-02-23T10:52:43;121.87;;;44.97;;
60859;SDS011;46694;54.382;9.708;2023-02-23T10:55:29;111.47;;;40.43;;
60859;SDS011;46694;54.382;9.708;2023-02-23T10:58:16;109.90;;;41.20;;
60859;SDS011;46694;54.382;9.708;2023-02-23T11:00:59;111.00;;;40.00;;
60859;SDS011;46694;54.382;9.708;2023-02-23T11:06:31;97.07;;;40.60;;
60859;SDS011;46694;54.382;9.708;2023-02-23T11:09:30;98.30;;;38.67;;
60859;SDS011;46694;54.382;9.708;2023-02-23T11:12:16;101.87;;;40.73;;
60859;SDS011;46694;54.382;9.708;2023-02-23T11:15:00;97.73;;;39.30;;
60859;SDS011;46694;54.382;9.708;2023-02-23T11:17:59;94.37;;;37.87;;
60859;SDS011;46694;54.382;9.708;2023-02-23T11:20:41;95.77;;;37.73;;
60859;SDS011;46694;54.382;9.708;2023-02-23T11:23:23;89.63;;;36.42;;
60859;SDS011;46694;54.382;9.708;2023-02-23T11:26:19;85.57;;;36.33;;
60859;SDS011;46694;54.382;9.708;2023-02-23T11:29:03;82.23;;;36.30;;
60859;SDS011;46694;54.382;9.708;2023-02-23T11:41:18;79.70;;;35.80;;
60859;SDS011;46694;54.382;9.708;2023-02-23T11:44:00;74.17;;;33.77;;
60859;SDS011;46694;54.382;9.708;2023-02-23T11:46:41;99.90;;;34.70;;
60859;SDS011;46694;54.382;9.708;2023-02-23T11:49:25;76.00;;;34.87;;
60859;SDS011;46694;54.382;9.708;2023-02-23T11:52:20;70.60;;;31.37;;
60859;SDS011;46694;54.382;9.708;2023-02-23T11:55:04;71.67;;;32.67;;
60859;SDS011;46694;54.382;9.708;2023-02-23T11:57:45;66.87;;;32.57;;
60859;SDS011;46694;54.382;9.708;2023-02-23T12:00:28;66.37;;;31.60;;
60859;SDS011;46694;54.382;9.708;2023-02-23T12:03:11;69.93;;;32.30;;
60859;SDS011;46694;54.382;9.708;2023-02-23T12:06:01;67.90;;;33.17;;
60859;SDS011;46694;54.382;9.708;2023-02-23T12:08:45;65.00;;;29.93;;
60859;SDS011;46694;54.382;9.708;2023-02-23T12:11:32;69.13;;;30.80;;
60859;SDS011;46694;54.382;9.708;2023-02-23T12:14:41;66.37;;;29.67;;
60859;SDS011;46694;54.382;9.708;2023-02-23T12:23:02;62.10;;;27.30;;
60859;SDS011;46694;54.382;9.708;2023-02-23T12:25:50;58.20;;;25.50;;
60859;SDS011;46694;54.382;9.708;2023-02-23T12:31:41;62.47;;;24.63;;
60859;SDS011;46694;54.382;9.708;2023-02-23T12:34:48;66.33;;;25.00;;
60859;SDS011;46694;54.382;9.708;2023-02-23T12:37:47;55.93;;;23.27;;
60859;SDS011;46694;54.382;9.708;2023-02-23T12:40:33;60.47;;;23.60;;
60859;SDS011;46694;54.382;9.708;2023-02-23T12:43:18;57.23;;;22.47;;
60859;SDS011;46694;54.382;9.708;2023-02-23T12:46:12;52.57;;;21.37;;
60859;SDS011;46694;54.382;9.708;2023-02-23T12:49:33;58.93;;;22.30;;
60859;SDS011;46694;54.382;9.708;2023-02-23T12:52:21;66.60;;;23.90;;
60859;SDS011;46694;54.382;9.708;2023-02-23T12:55:11;59.53;;;24.30;;
60859;SDS011;46694;54.382;9.708;2023-02-23T12:57:53;60.00;;;23.27;;
60859;SDS011;46694;54.382;9.708;2023-02-23T13:19:34;45.80;;;16.90;;
60859;SDS011;46694;54.382;9.708;2023-02-23T13:22:45;45.80;;;17.23;;
60859;SDS011;46694;54.382;9.708;2023-02-23T13:32:10;39.73;;;17.30;;
60859;SDS011;46694;54.382;9.708;2023-02-23T13:34:56;41.23;;;17.20;;
60859;SDS011;46694;54.382;9.708;2023-02-23T13:41:26;49.00;;;16.47;;
60859;SDS011;46694;54.382;9.708;2023-02-23T13:44:28;49.97;;;16.93;;
60859;SDS011;46694;54.382;9.708;2023-02-23T13:56:49;54.67;;;19.00;;
60859;SDS011;46694;54.382;9.708;2023-02-23T13:59:40;49.73;;;18.93;;
60859;SDS011;46694;54.382;9.708;2023-02-23T14:08:01;46.83;;;16.47;;
60859;SDS011;46694;54.382;9.708;2023-02-23T14:10:42;64.00;;;18.90;;
60859;SDS011;46694;54.382;9.708;2023-02-23T14:13:27;64.60;;;18.03;;
60859;SDS011;46694;54.382;9.708;2023-02-23T14:19:03;41.37;;;14.10;;
60859;SDS011;46694;54.382;9.708;2023-02-23T14:25:46;34.87;;;11.13;;
60859;SDS011;46694;54.382;9.708;2023-02-23T14:28:37;24.23;;;7.50;;
60859;SDS011;46694;54.382;9.708;2023-02-23T14:31:21;35.70;;;8.10;;
60859;SDS011;46694;54.382;9.708;2023-02-23T14:34:05;36.23;;;7.53;;
60859;SDS011;46694;54.382;9.708;2023-02-23T14:36:47;23.63;;;7.47;;
60859;SDS011;46694;54.382;9.708;2023-02-23T14:39:30;22.05;;;6.43;;
60859;SDS011;46694;54.382;9.708;2023-02-23T14:42:18;25.87;;;6.07;;
60859;SDS011;46694;54.382;9.708;2023-02-23T14:45:04;35.07;;;6.40;;
60859;SDS011;46694;54.382;9.708;2023-02-23T14:47:57;34.33;;;5.87;;
60859;SDS011;46694;54.382;9.708;2023-02-23T14:50:50;43.92;;;6.95;;
60859;SDS011;46694;54.382;9.708;2023-02-23T14:53:58;32.55;;;5.07;;
60859;SDS011;46694;54.382;9.708;2023-02-23T14:56:44;45.58;;;5.60;;
60859;SDS011;46694;54.382;9.708;2023-02-23T14:59:44;34.13;;;5.05;;
60859;SDS011;46694;54.382;9.708;2023-02-23T15:02:34;30.30;;;5.78;;
60859;SDS011;46694;54.382;9.708;2023-02-23T15:05:17;30.45;;;5.50;;
60859;SDS011;46694;54.382;9.708;2023-02-23T15:08:00;38.20;;;6.05;;
60859;SDS011;46694;54.382;9.708;2023-02-23T15:10:43;36.47;;;5.90;;
60859;SDS011;46694;54.382;9.708;2023-02-23T15:16:11;26.08;;;3.75;;
60859;SDS011;46694;54.382;9.708;2023-02-23T15:19:12;38.17;;;4.72;;
60859;SDS011;46694;54.382;9.708;2023-02-23T15:21:58;20.77;;;4.32;;
60859;SDS011;46694;54.382;9.708;2023-02-23T15:24:41;21.13;;;4.18;;
60859;SDS011;46694;54.382;9.708;2023-02-23T15:27:23;20.65;;;4.32;;
60859;SDS011;46694;54.382;9.708;2023-02-23T15:33:11;24.90;;;4.70;;
60859;SDS011;46694;54.382;9.708;2023-02-23T15:35:55;21.55;;;3.75;;
60859;SDS011;46694;54.382;9.708;2023-02-23T15:39:00;21.23;;;3.75;;
60859;SDS011;46694;54.382;9.708;2023-02-23T15:41:44;29.30;;;4.70;;
60859;SDS011;46694;54.382;9.708;2023-02-23T15:44:26;19.70;;;4.32;;
60859;SDS011;46694;54.382;9.708;2023-02-23T15:51:20;28.00;;;5.43;;
60859;SDS011;46694;54.382;9.708;2023-02-23T15:54:24;30.73;;;4.03;;
60859;SDS011;46694;54.382;9.708;2023-02-23T15:57:17;25.25;;;5.25;;
60859;SDS011;46694;54.382;9.708;2023-02-23T16:00:01;27.20;;;5.00;;
60859;SDS011;46694;54.382;9.708;2023-02-23T16:02:55;26.40;;;3.95;;
60859;SDS011;46694;54.382;9.708;2023-02-23T16:05:35;13.80;;;2.97;;
60859;SDS011;46694;54.382;9.708;2023-02-23T16:08:22;27.50;;;4.72;;
60859;SDS011;46694;54.382;9.708;2023-02-23T16:11:06;31.38;;;4.63;;
60859;SDS011;46694;54.382;9.708;2023-02-23T16:13:50;23.90;;;4.05;;
60859;SDS011;46694;54.382;9.708;2023-02-23T16:16:33;26.20;;;4.50;;
60859;SDS011;46694;54.382;9.708;2023-02-23T16:19:13;23.60;;;4.70;;
60859;SDS011;46694;54.382;9.708;2023-02-23T16:21:55;25.73;;;4.60;;
60859;SDS011;46694;54.382;9.708;2023-02-23T16:24:36;33.05;;;5.38;;
60859;SDS011;46694;54.382;9.708;2023-02-23T16:27:15;26.67;;;4.80;;
60859;SDS011;46694;54.382;9.708;2023-02-23T16:29:56;23.70;;;4.50;;
60859;SDS011;46694;54.382;9.708;2023-02-23T16:32:44;27.00;;;4.55;;
60859;SDS011;46694;54.382;9.708;2023-02-23T16:35:24;25.33;;;4.25;;
60859;SDS011;46694;54.382;9.708;2023-02-23T16:38:37;22.60;;;5.30;;
60859;SDS011;46694;54.382;9.708;2023-02-23T16:41:36;29.95;;;4.90;;
60859;SDS011;46694;54.382;9.708;2023-02-23T16:44:16;21.00;;;4.65;;
60859;SDS011;46694;54.382;9.708;2023-02-23T16:49:40;24.88;;;4.20;;
60859;SDS011;46694;54.382;9.708;2023-02-23T16:52:21;33.80;;;4.68;;
60859;SDS011;46694;54.382;9.708;2023-02-23T16:55:01;33.83;;;5.50;;
60859;SDS011;46694;54.382;9.708;2023-02-23T16:57:43;32.97;;;5.38;;
60859;SDS011;46694;54.382;9.708;2023-02-23T17:00:29;32.60;;;5.22;;
60859;SDS011;46694;54.382;9.708;2023-02-23T17:03:15;23.20;;;4.30;;
60859;SDS011;46694;54.382;9.708;2023-02-23T17:06:04;35.83;;;5.07;;
60859;SDS011;46694;54.382;9.708;2023-02-23T17:08:44;31.85;;;4.93;;
60859;SDS011;46694;54.382;9.708;2023-02-23T17:11:23;22.25;;;4.25;;
60859;SDS011;46694;54.382;9.708;2023-02-23T17:14:03;36.88;;;5.65;;
60859;SDS011;46694;54.382;9.708;2023-02-23T17:16:43;26.90;;;5.57;;
60859;SDS011;46694;54.382;9.708;2023-02-23T17:19:22;27.38;;;4.80;;
60859;SDS011;46694;54.382;9.708;2023-02-23T17:22:02;27.00;;;4.45;;
60859;SDS011;46694;54.382;9.708;2023-02-23T17:24:41;30.83;;;5.20;;
60859;SDS011;46694;54.382;9.708;2023-02-23T17:27:21;27.65;;;3.92;;
60859;SDS011;46694;54.382;9.708;2023-02-23T17:30:01;27.02;;;5.20;;
60859;SDS011;46694;54.382;9.708;2023-02-23T17:32:42;25.00;;;4.30;;
60859;SDS011;46694;54.382;9.708;2023-02-23T17:35:22;21.30;;;4.07;;
60859;SDS011;46694;54.382;9.708;2023-02-23T17:38:02;23.15;;;4.00;;
60859;SDS011;46694;54.382;9.708;2023-02-23T17:40:43;21.00;;;3.90;;
60859;SDS011;46694;54.382;9.708;2023-02-23T17:43:23;29.45;;;4.30;;
60859;SDS011;46694;54.382;9.708;2023-02-23T17:46:03;29.15;;;4.97;;
60859;SDS011;46694;54.382;9.708;2023-02-23T17:48:43;28.85;;;5.22;;
60859;SDS011;46694;54.382;9.708;2023-02-23T17:51:25;27.92;;;5.50;;
60859;SDS011;46694;54.382;9.708;2023-02-23T17:54:04;22.53;;;4.90;;
60859;SDS011;46694;54.382;9.708;2023-02-23T17:56:43;25.80;;;5.77;;
60859;SDS011;46694;54.382;9.708;2023-02-23T17:59:23;23.27;;;4.20;;
60859;SDS011;46694;54.382;9.708;2023-02-23T18:02:02;28.80;;;4.88;;
60859;SDS011;46694;54.382;9.708;2023-02-23T18:04:44;30.75;;;6.50;;
60859;SDS011;46694;54.382;9.708;2023-02-23T18:07:28;34.60;;;7.13;;
60859;SDS011;46694;54.382;9.708;2023-02-23T18:10:08;24.30;;;5.50;;
60859;SDS011;46694;54.382;9.708;2023-02-23T18:12:48;25.58;;;4.90;;
60859;SDS011;46694;54.382;9.708;2023-02-23T18:15:28;23.13;;;5.25;;